Time;durP1;ratioP1;P1;durP2;ratioP2;P2;SDS_P1;SDS_P2;PMS_P1;PMS_P2;Temp;Humidity;BMP_temperature;BMP_pressure;BME280_temperature;BME280_humidity;BME280_pressure;Samples;Min_cycle;Max_cycle;Signal;HPM_P1;HPM_P2
2023/05/22 00:01:25;;;;;;;14.37;4.87;;;;;;;17.76;63.57;101092.69;5022031;28;20399;-85
2023/05/22 00:03:51;;;;;;;10.85;4.30;;;;;;;17.64;64.05;101099.72;5025437;28;20403;-85
2023/05/22 00:06:17;;;;;;;15.95;4.90;;;;;;;17.55;64.41;101091.03;5041707;28;20402;-84
2023/05/22 00:08:43;;;;;;;16.10;4.70;;;;;;;17.53;64.36;101093.09;5033024;28;20501;-85
2023/05/22 00:11:09;;;;;;;14.20;4.90;;;;;;;17.36;65.19;101090.84;5020366;28;20384;-85
2023/05/22 00:13:35;;;;;;;15.27;5.40;;;;;;;17.22;65.59;101083.00;5029639;28;20417;-84
2023/05/22 00:16:00;;;;;;;16.83;5.00;;;;;;;17.19;65.74;101092.25;5039395;28;20771;-84
2023/05/22 00:18:26;;;;;;;14.13;4.90;;;;;;;17.18;65.38;101093.31;5040984;28;20474;-83
2023/05/22 00:20:52;;;;;;;16.85;4.97;;;;;;;17.24;65.55;101088.97;5040947;28;20489;-84
2023/05/22 00:23:18;;;;;;;13.10;4.80;;;;;;;17.17;65.49;101076.38;5038548;28;20444;-84
2023/05/22 00:25:43;;;;;;;13.55;4.72;;;;;;;17.20;65.73;101083.22;5039231;28;20402;-84
2023/05/22 00:28:10;;;;;;;14.83;4.90;;;;;;;17.05;66.15;101094.13;5040268;28;20381;-84
2023/05/22 00:30:36;;;;;;;13.82;4.60;;;;;;;16.91;66.39;101093.25;5046599;28;20394;-84
2023/05/22 00:33:02;;;;;;;15.98;4.93;;;;;;;17.06;66.06;101084.22;5031856;28;20431;-83
2023/05/22 00:35:28;;;;;;;13.25;4.57;;;;;;;17.19;65.58;101087.72;5029414;28;20921;-84
2023/05/22 00:37:53;;;;;;;17.73;4.90;;;;;;;17.27;65.18;101089.41;5041468;28;20382;-84
2023/05/22 00:40:20;;;;;;;12.90;4.33;;;;;;;17.33;64.85;101080.53;5043789;28;20775;-85
2023/05/22 00:42:45;;;;;;;12.27;4.50;;;;;;;17.35;64.75;101081.16;5041966;28;20393;-85
2023/05/22 00:45:13;;;;;;;15.23;5.03;;;;;;;17.47;64.61;101091.28;5041379;28;20399;-87
2023/05/22 00:47:39;;;;;;;13.73;4.82;;;;;;;17.43;64.63;101079.28;5058860;28;20397;-84
2023/05/22 00:50:05;;;;;;;15.32;4.95;;;;;;;17.37;64.63;101079.06;5045876;28;20407;-85
2023/05/22 00:52:36;;;;;;;16.52;5.03;;;;;;;17.23;65.28;101085.47;5045434;28;20429;-86
2023/05/22 00:55:02;;;;;;;14.98;4.85;;;;;;;17.00;65.96;101078.66;5043250;28;20390;-85
2023/05/22 00:57:29;;;;;;;13.07;5.13;;;;;;;17.00;66.23;101088.53;5044308;28;20505;-85
2023/05/22 00:59:55;;;;;;;12.30;4.82;;;;;;;16.93;66.38;101085.84;5044541;28;20378;-84
2023/05/22 01:02:21;;;;;;;14.27;4.65;;;;;;;16.99;66.31;101076.97;5044070;28;20409;-85
2023/05/22 01:04:47;;;;;;;15.77;4.88;;;;;;;17.10;65.62;101077.41;5042029;28;20414;-85
2023/05/22 01:07:15;;;;;;;14.70;5.13;;;;;;;17.11;65.88;101079.09;5043360;28;20444;-86
2023/05/22 01:09:41;;;;;;;14.57;4.72;;;;;;;17.12;65.54;101070.81;5044592;28;20374;-86
2023/05/22 01:12:28;;;;;;;14.80;4.80;;;;;;;17.26;65.12;101073.53;5044097;28;20406;-86
2023/05/22 01:15:16;;;;;;;18.75;5.20;;;;;;;17.41;64.66;101087.53;5043490;28;20415;-85
2023/05/22 01:17:51;;;;;;;14.05;4.70;;;;;;;17.46;64.22;101089.59;5023902;28;20388;-85
2023/05/22 01:20:47;;;;;;;15.82;5.13;;;;;;;17.35;64.44;101091.88;5030183;28;20430;-85
2023/05/22 01:23:37;;;;;;;12.00;4.72;;;;;;;17.29;64.69;101083.84;5024758;28;20403;-85
2023/05/22 01:26:39;;;;;;;13.07;4.75;;;;;;;17.19;64.90;101079.69;5039811;28;20406;-84
2023/05/22 01:29:22;;;;;;;18.45;5.05;;;;;;;17.33;64.53;101077.84;5045252;28;20378;-85
2023/05/22 01:31:50;;;;;;;17.02;5.30;;;;;;;17.33;63.98;101061.78;5042698;28;20454;-86
2023/05/22 01:34:17;;;;;;;16.50;4.95;;;;;;;17.36;63.87;101080.13;5044722;28;20401;-85
2023/05/22 01:36:45;;;;;;;18.87;6.10;;;;;;;17.35;64.09;101081.16;5043692;28;20456;-83
2023/05/22 01:39:11;;;;;;;14.95;4.80;;;;;;;17.41;63.75;101081.34;5042845;28;20378;-85
2023/05/22 01:41:39;;;;;;;16.67;5.15;;;;;;;17.42;63.75;101062.41;5055019;28;20378;-84
2023/05/22 01:44:04;;;;;;;12.60;4.95;;;;;;;17.41;63.65;101063.41;5042706;28;20465;-83
2023/05/22 01:46:30;;;;;;;15.60;5.30;;;;;;;17.47;63.57;101056.44;5040867;28;20397;-83
2023/05/22 01:48:57;;;;;;;14.20;4.70;;;;;;;17.45;63.52;101061.16;5042678;28;20477;-83
2023/05/22 01:51:42;;;;;;;14.00;5.18;;;;;;;17.45;63.52;101063.81;5040160;28;20398;-83
2023/05/22 01:54:35;;;;;;;20.48;6.30;;;;;;;17.51;63.44;101071.88;5042596;28;20457;-86
2023/05/22 01:57:23;;;;;;;18.92;7.55;;;;;;;17.52;63.14;101073.53;5037150;28;20379;-85
2023/05/22 01:59:55;;;;;;;22.27;8.35;;;;;;;17.45;63.53;101070.03;5026773;28;20405;-86
2023/05/22 02:02:22;;;;;;;19.55;5.63;;;;;;;17.26;64.32;101068.97;5024445;28;20471;-85
2023/05/22 02:04:54;;;;;;;16.10;5.00;;;;;;;17.14;64.85;101067.94;5020535;28;20406;-85
2023/05/22 02:07:23;;;;;;;15.80;5.50;;;;;;;17.13;65.06;101072.47;5028266;28;20409;-86
2023/05/22 02:09:50;;;;;;;15.90;5.80;;;;;;;17.08;65.09;101072.25;5034044;28;20393;-85
2023/05/22 02:12:16;;;;;;;16.42;5.82;;;;;;;17.12;65.03;101054.75;5029937;28;20416;-85
2023/05/22 02:14:42;;;;;;;13.40;4.63;;;;;;;17.13;64.92;101053.72;5026965;28;22026;-85
2023/05/22 02:17:08;;;;;;;17.98;5.38;;;;;;;17.10;65.18;101067.53;5028708;28;20440;-85
2023/05/22 02:19:36;;;;;;;16.03;5.67;;;;;;;16.82;65.88;101054.28;5040384;28;20426;-85
2023/05/22 02:22:02;;;;;;;16.85;5.35;;;;;;;16.74;66.29;101055.28;5024829;28;20752;-85
2023/05/22 02:24:29;;;;;;;15.85;5.05;;;;;;;16.70;66.46;101061.25;5041284;28;20900;-85
2023/05/22 02:26:55;;;;;;;15.98;5.25;;;;;;;16.62;66.84;101075.66;5017790;28;20718;-84
2023/05/22 02:29:21;;;;;;;17.95;5.38;;;;;;;16.72;66.55;101076.06;5023870;28;20392;-85
2023/05/22 02:31:46;;;;;;;16.47;6.07;;;;;;;16.78;66.11;101074.44;5036267;28;20436;-85
2023/05/22 02:34:11;;;;;;;16.40;5.67;;;;;;;16.72;66.15;101065.38;5040103;28;20381;-84
2023/05/22 02:36:37;;;;;;;15.30;5.00;;;;;;;16.77;66.10;101073.63;5056099;28;20441;-84
2023/05/22 02:39:03;;;;;;;16.70;5.47;;;;;;;16.87;65.79;101072.44;5044169;28;20810;-85
2023/05/22 02:41:29;;;;;;;15.07;5.35;;;;;;;16.97;65.33;101068.34;5046236;28;20419;-84
2023/05/22 02:43:55;;;;;;;16.13;5.40;;;;;;;16.89;65.45;101067.69;5042269;28;20402;-84
2023/05/22 02:46:20;;;;;;;17.50;5.40;;;;;;;16.81;65.76;101069.50;5033554;28;20408;-85
2023/05/22 02:48:46;;;;;;;16.35;5.70;;;;;;;16.83;65.80;101063.97;5046223;28;20381;-84
2023/05/22 02:51:11;;;;;;;19.57;5.87;;;;;;;16.87;65.66;101072.44;5060852;28;20390;-87
2023/05/22 02:53:39;;;;;;;18.08;6.00;;;;;;;16.83;65.69;101080.03;5037944;28;20398;-86
2023/05/22 02:56:11;;;;;;;17.50;5.90;;;;;;;16.85;65.65;101067.28;5023188;28;20410;-83
2023/05/22 02:58:40;;;;;;;12.10;6.25;;;;;;;16.89;65.59;101071.22;5041324;28;20387;-84
2023/05/22 03:01:07;;;;;;;13.77;5.47;;;;;;;16.88;65.56;101079.44;5042352;28;20463;-85
2023/05/22 03:03:33;;;;;;;15.65;5.97;;;;;;;16.98;65.40;101074.53;5043167;28;20430;-84
2023/05/22 03:06:00;;;;;;;16.40;6.30;;;;;;;17.05;65.33;101064.66;5031100;28;20466;-85
2023/05/22 03:08:27;;;;;;;15.88;6.40;;;;;;;17.01;65.50;101074.09;5036703;28;20885;-85
2023/05/22 03:10:54;;;;;;;17.33;6.13;;;;;;;17.08;65.41;101074.13;5021330;28;20391;-83
2023/05/22 03:13:19;;;;;;;17.27;6.10;;;;;;;17.13;65.34;101069.81;5020502;28;20493;-86
2023/05/22 03:15:45;;;;;;;16.70;6.70;;;;;;;17.13;65.12;101068.97;5024592;28;20846;-84
2023/05/22 03:18:10;;;;;;;17.53;6.30;;;;;;;17.13;65.26;101077.03;5022297;28;20396;-85
2023/05/22 03:20:36;;;;;;;15.13;6.00;;;;;;;17.10;65.50;101067.53;5027869;28;20394;-86
2023/05/22 03:23:01;;;;;;;14.17;6.30;;;;;;;17.08;65.36;101068.78;5026526;28;20948;-84
2023/05/22 03:25:27;;;;;;;17.80;6.30;;;;;;;17.04;65.74;101071.03;5034563;28;20402;-85
2023/05/22 03:27:52;;;;;;;13.60;5.93;;;;;;;17.03;65.93;101076.59;5033849;28;20427;-85
2023/05/22 03:30:17;;;;;;;17.47;6.87;;;;;;;17.04;65.89;101068.34;5037091;28;20381;-85
2023/05/22 03:32:43;;;;;;;23.00;6.87;;;;;;;17.06;65.83;101062.78;5035795;28;20409;-86
2023/05/22 03:35:09;;;;;;;20.77;7.43;;;;;;;17.04;66.07;101071.03;5032195;28;20392;-85
2023/05/22 03:37:34;;;;;;;20.17;7.47;;;;;;;17.03;66.11;101073.91;5038887;28;20398;-84
2023/05/22 03:40:00;;;;;;;20.00;7.17;;;;;;;16.97;66.14;101073.69;5033917;28;20388;-83
2023/05/22 03:42:25;;;;;;;21.03;6.93;;;;;;;16.94;66.35;101079.47;5041368;28;20415;-84
2023/05/22 03:44:51;;;;;;;23.48;7.28;;;;;;;16.89;66.50;101081.94;5047446;28;20394;-84
2023/05/22 03:47:16;;;;;;;18.97;7.70;;;;;;;16.90;66.83;101080.88;5052766;28;21088;-84
2023/05/22 03:49:42;;;;;;;17.53;9.30;;;;;;;16.92;66.74;101080.69;5056997;28;20392;-84
2023/05/22 03:52:09;;;;;;;21.47;8.33;;;;;;;16.96;66.57;101068.53;5050457;28;20415;-83
2023/05/22 03:54:35;;;;;;;22.80;7.38;;;;;;;17.05;66.39;101075.38;5058113;28;20372;-84
2023/05/22 03:57:00;;;;;;;18.57;7.00;;;;;;;17.04;66.09;101075.56;5059539;28;20453;-85
2023/05/22 03:59:26;;;;;;;21.30;6.70;;;;;;;17.15;66.23;101085.69;5063225;28;20405;-85
2023/05/22 04:01:51;;;;;;;17.10;6.93;;;;;;;17.30;66.03;101099.69;5073430;28;20407;-85
2023/05/22 04:04:16;;;;;;;17.20;7.47;;;;;;;17.25;65.74;101091.47;5066994;28;20464;-85
2023/05/22 04:06:42;;;;;;;20.52;7.70;;;;;;;17.26;65.90;101095.78;5061174;28;20394;-85
2023/05/22 04:09:13;;;;;;;16.70;6.32;;;;;;;17.28;65.79;101093.72;5059398;28;20406;-85
2023/05/22 04:11:38;;;;;;;20.05;6.30;;;;;;;17.22;66.19;101091.88;5064054;28;20381;-85
2023/05/22 04:14:05;;;;;;;16.20;5.73;;;;;;;17.24;66.10;101099.69;5065834;28;20412;-84
2023/05/22 04:16:31;;;;;;;15.90;5.80;;;;;;;17.20;66.28;101108.13;5060426;28;20394;-84
2023/05/22 04:18:57;;;;;;;14.38;5.97;;;;;;;17.19;66.21;101103.78;5041343;28;20395;-84
2023/05/22 04:21:23;;;;;;;17.55;5.97;;;;;;;17.30;66.11;101093.50;5032592;28;20405;-84
2023/05/22 04:23:51;;;;;;;14.98;5.70;;;;;;;17.45;65.85;101098.66;5049922;28;20422;-85
2023/05/22 04:26:19;;;;;;;14.00;5.85;;;;;;;17.68;65.23;101104.47;5034557;28;20390;-84
2023/05/22 04:28:48;;;;;;;14.63;5.80;;;;;;;17.84;64.89;101103.19;5035403;28;20398;-84
2023/05/22 04:31:13;;;;;;;25.45;6.55;;;;;;;17.92;64.95;101094.97;5049093;28;20401;-85
2023/05/22 04:33:39;;;;;;;17.13;6.10;;;;;;;18.03;64.75;101100.72;5055070;28;20741;-84
2023/05/22 04:36:07;;;;;;;19.70;6.30;;;;;;;18.13;64.85;101098.41;5044537;28;20782;-84
2023/05/22 04:38:35;;;;;;;16.85;6.03;;;;;;;18.25;64.51;101098.59;5034978;28;20398;-84
2023/05/22 04:41:02;;;;;;;20.15;6.22;;;;;;;18.26;64.28;101093.00;5033103;28;20973;-84
2023/05/22 04:43:28;;;;;;;28.02;6.45;;;;;;;18.29;64.18;101094.44;5029553;28;20394;-84
2023/05/22 04:45:55;;;;;;;15.85;6.03;;;;;;;18.26;64.12;101097.56;5033995;28;20409;-84
2023/05/22 04:48:21;;;;;;;23.65;6.68;;;;;;;18.42;64.01;101091.72;5033371;28;20397;-84
2023/05/22 04:50:48;;;;;;;20.27;5.90;;;;;;;18.44;63.47;101092.34;5029613;28;20951;-85
2023/05/22 04:53:14;;;;;;;22.25;6.13;;;;;;;18.59;63.73;101097.41;5013254;28;20450;-86
2023/05/22 04:55:40;;;;;;;18.77;5.80;;;;;;;18.87;63.60;101094.44;5026928;28;20390;-86
2023/05/22 04:58:05;;;;;;;17.60;5.83;;;;;;;18.88;62.56;101089.88;5033501;28;20402;-85
2023/05/22 05:00:31;;;;;;;20.87;6.07;;;;;;;18.96;62.69;101103.06;5031967;28;20408;-84
2023/05/22 05:02:56;;;;;;;22.77;5.90;;;;;;;19.01;62.20;101095.13;5032148;28;20392;-86
2023/05/22 05:05:22;;;;;;;20.80;5.53;;;;;;;19.17;61.80;101092.97;5047959;28;20405;-85
2023/05/22 05:07:48;;;;;;;19.43;5.93;;;;;;;19.31;61.44;101086.47;5036067;28;20392;-85
2023/05/22 05:10:14;;;;;;;18.20;6.22;;;;;;;19.41;61.13;101089.50;5047187;28;20389;-85
2023/05/22 05:12:40;;;;;;;16.52;5.93;;;;;;;19.67;60.84;101088.44;5042705;28;20410;-85
2023/05/22 05:15:06;;;;;;;18.67;5.83;;;;;;;19.90;59.92;101099.63;5042826;28;20389;-85
2023/05/22 05:17:32;;;;;;;18.63;5.50;;;;;;;19.82;59.90;101098.03;5037614;28;20398;-85
2023/05/22 05:19:58;;;;;;;23.13;5.97;;;;;;;19.63;59.79;101095.31;5042949;28;20391;-85
2023/05/22 05:22:24;;;;;;;16.57;5.90;;;;;;;19.63;59.92;101094.50;5044287;28;20828;-85
2023/05/22 05:24:50;;;;;;;20.58;6.43;;;;;;;19.51;59.83;101096.25;5038793;28;20987;-85
2023/05/22 05:27:15;;;;;;;13.20;5.57;;;;;;;19.50;59.82;101095.44;5040606;28;20853;-85
2023/05/22 05:29:42;;;;;;;12.73;5.63;;;;;;;19.52;59.97;101096.03;5025128;28;20402;-85
2023/05/22 05:32:10;;;;;;;18.30;5.93;;;;;;;19.60;59.76;101105.69;5020468;28;20408;-85
2023/05/22 05:34:35;;;;;;;14.63;6.03;;;;;;;19.63;60.04;101100.69;5020561;28;20999;-86
2023/05/22 05:37:01;;;;;;;24.20;6.68;;;;;;;19.61;59.57;101110.84;5021079;28;20991;-84
2023/05/22 05:39:27;;;;;;;16.35;5.85;;;;;;;19.59;59.63;101107.56;5019678;28;20921;-86
2023/05/22 05:41:53;;;;;;;15.23;6.00;;;;;;;19.56;59.47;101097.22;5021449;28;20450;-86
2023/05/22 05:44:18;;;;;;;21.77;6.23;;;;;;;19.56;59.80;101110.66;5024535;28;20433;-85
2023/05/22 05:46:44;;;;;;;14.53;5.63;;;;;;;19.63;59.69;101116.00;5025491;28;20417;-86
2023/05/22 05:49:10;;;;;;;13.73;6.17;;;;;;;19.68;59.90;101116.97;5023295;28;20870;-86
2023/05/22 05:51:38;;;;;;;18.13;5.95;;;;;;;19.64;59.42;101098.81;5013139;28;20393;-86
2023/05/22 05:54:04;;;;;;;19.25;6.05;;;;;;;19.52;59.70;101104.09;5020151;28;20398;-86
2023/05/22 05:56:29;;;;;;;18.30;6.28;;;;;;;19.55;59.79;101114.38;5024806;28;20395;-85
2023/05/22 05:58:55;;;;;;;16.27;6.07;;;;;;;19.39;59.79;101106.88;5034891;28;20388;-87
2023/05/22 06:01:24;;;;;;;13.17;5.53;;;;;;;19.57;60.00;101109.66;5051818;28;20392;-86
2023/05/22 06:03:50;;;;;;;16.83;6.22;;;;;;;19.61;59.58;101105.47;5032339;28;20393;-85
2023/05/22 06:06:16;;;;;;;21.35;6.35;;;;;;;19.66;59.45;101110.16;5029812;28;20388;-85
2023/05/22 06:08:42;;;;;;;18.13;6.07;;;;;;;19.71;59.50;101112.19;5038398;28;20399;-86
2023/05/22 06:11:08;;;;;;;17.65;6.30;;;;;;;19.80;59.36;101114.41;5042527;28;20398;-85
2023/05/22 06:13:34;;;;;;;23.00;6.70;;;;;;;19.96;59.13;101117.59;5047842;28;20500;-84
2023/05/22 06:15:59;;;;;;;19.07;5.90;;;;;;;19.99;58.47;101109.06;5048886;28;20411;-85
2023/05/22 06:18:25;;;;;;;19.30;6.18;;;;;;;20.00;58.58;101102.63;5052192;28;20380;-85
2023/05/22 06:20:52;;;;;;;13.87;5.50;;;;;;;20.16;57.84;101112.00;5045983;28;20392;-85
2023/05/22 06:23:17;;;;;;;16.98;5.75;;;;;;;20.29;57.37;101119.09;5048806;28;20388;-84
2023/05/22 06:25:43;;;;;;;18.47;5.87;;;;;;;20.25;57.45;101118.72;5054113;28;20414;-84
2023/05/22 06:28:09;;;;;;;13.45;5.63;;;;;;;20.27;57.31;101122.00;5043106;28;20480;-85
2023/05/22 06:30:35;;;;;;;14.17;5.70;;;;;;;20.22;57.34;101114.63;5039114;28;20395;-86
2023/05/22 06:33:00;;;;;;;13.02;5.57;;;;;;;20.21;57.39;101104.88;5066455;28;20401;-86
2023/05/22 06:35:26;;;;;;;12.67;4.90;;;;;;;20.20;57.53;101107.78;5068890;28;20372;-85
2023/05/22 06:37:53;;;;;;;12.27;4.97;;;;;;;20.21;57.49;101110.25;5056939;28;20392;-85
2023/05/22 06:40:19;;;;;;;10.73;5.22;;;;;;;20.38;57.24;101117.72;5040152;28;20454;-85
2023/05/22 06:42:44;;;;;;;16.83;5.40;;;;;;;20.49;57.23;101118.84;5062700;28;20837;-85
2023/05/22 06:45:10;;;;;;;14.25;5.22;;;;;;;20.58;57.11;101120.19;5058758;28;20407;-86
2023/05/22 06:47:35;;;;;;;15.40;5.60;;;;;;;20.62;56.82;101124.13;5054426;28;21148;-84
2023/05/22 06:50:01;;;;;;;14.87;5.30;;;;;;;20.64;56.89;101124.72;5069872;28;20424;-86
2023/05/22 06:52:26;;;;;;;18.20;5.47;;;;;;;20.57;56.81;101127.44;5058564;28;20864;-85
2023/05/22 06:54:52;;;;;;;14.50;5.23;;;;;;;20.46;56.71;101133.59;5051889;28;20387;-85
2023/05/22 06:57:18;;;;;;;17.98;5.55;;;;;;;20.44;56.80;101138.41;5057975;28;20427;-86
2023/05/22 06:59:43;;;;;;;16.27;5.57;;;;;;;20.47;57.04;101137.09;5054336;28;20392;-86
2023/05/22 07:02:09;;;;;;;15.48;5.30;;;;;;;20.59;57.12;101130.72;5040511;28;20430;-85
2023/05/22 07:04:34;;;;;;;14.87;5.17;;;;;;;20.78;56.92;101138.84;5035415;28;20408;-86
2023/05/22 07:07:01;;;;;;;16.33;5.70;;;;;;;20.81;57.12;101124.88;5052305;28;20449;-85
2023/05/22 07:09:27;;;;;;;18.37;5.30;;;;;;;20.93;56.86;101117.69;5032838;28;20408;-86
2023/05/22 07:11:52;;;;;;;17.73;5.53;;;;;;;20.92;56.93;101121.44;5040650;28;20391;-85
2023/05/22 07:14:18;;;;;;;14.27;5.33;;;;;;;20.95;57.07;101128.25;5028498;28;20429;-85
2023/05/22 07:16:43;;;;;;;13.85;5.10;;;;;;;20.97;56.56;101121.56;5034145;28;20395;-85
2023/05/22 07:19:10;;;;;;;14.03;5.10;;;;;;;21.13;56.65;101116.56;5035248;28;20755;-84
2023/05/22 07:21:36;;;;;;;13.50;5.28;;;;;;;21.33;56.87;101111.69;5035521;28;20394;-87
2023/05/22 07:24:06;;;;;;;14.82;5.25;;;;;;;21.72;56.10;101119.41;5041050;28;20410;-86
2023/05/22 07:26:34;;;;;;;14.60;5.03;;;;;;;21.63;55.33;101124.31;5045337;28;20879;-86
2023/05/22 07:28:59;;;;;;;13.25;5.25;;;;;;;21.64;55.80;101111.63;5033067;28;20400;-86
2023/05/22 07:31:26;;;;;;;11.18;5.00;;;;;;;22.00;55.54;101107.88;5041534;28;20389;-85
2023/05/22 07:33:52;;;;;;;13.32;4.88;;;;;;;22.47;54.29;101105.13;5035446;28;20405;-84
2023/05/22 07:36:17;;;;;;;18.70;5.63;;;;;;;22.59;53.65;101109.66;5020228;28;20403;-85
2023/05/22 07:38:44;;;;;;;15.20;5.15;;;;;;;22.51;52.92;101100.06;5033929;28;20414;-84
2023/05/22 07:41:09;;;;;;;11.03;4.53;;;;;;;22.64;52.74;101098.94;5038723;28;20495;-85
2023/05/22 07:43:35;;;;;;;17.42;5.43;;;;;;;22.85;52.02;101102.84;5039144;28;20454;-86
2023/05/22 07:46:00;;;;;;;13.37;4.83;;;;;;;22.71;51.62;101099.63;5039153;28;20398;-86
2023/05/22 07:48:26;;;;;;;15.47;5.00;;;;;;;22.85;51.27;101095.56;5031116;28;20460;-86
2023/05/22 07:50:53;;;;;;;13.55;4.88;;;;;;;23.02;51.25;101100.19;5026383;28;20707;-85
2023/05/22 07:53:18;;;;;;;12.25;4.88;;;;;;;22.94;50.03;101093.28;5040574;28;20436;-87
2023/05/22 07:55:44;;;;;;;16.63;4.60;;;;;;;22.93;49.75;101096.22;5024328;28;20388;-87
2023/05/22 07:58:10;;;;;;;11.07;4.53;;;;;;;23.20;49.88;101102.69;5041993;28;20394;-86
2023/05/22 08:00:35;;;;;;;11.85;4.50;;;;;;;23.32;49.50;101112.59;5044929;28;20406;-86
2023/05/22 08:03:01;;;;;;;14.33;4.33;;;;;;;23.43;47.60;101109.00;5037301;28;20423;-87
2023/05/22 08:05:27;;;;;;;12.67;4.50;;;;;;;23.23;48.03;101106.78;5056694;28;20951;-87
2023/05/22 08:07:52;;;;;;;14.18;5.07;;;;;;;23.27;48.11;101106.03;5033925;28;20384;-87
2023/05/22 08:10:18;;;;;;;15.10;5.03;;;;;;;23.47;48.86;101099.31;5039725;28;20390;-86
2023/05/22 08:12:44;;;;;;;14.50;4.40;;;;;;;23.69;47.66;101114.81;5051829;28;20417;-87
2023/05/22 08:15:11;;;;;;;12.88;4.65;;;;;;;23.76;47.21;101096.50;5031058;28;20479;-86
2023/05/22 08:17:37;;;;;;;15.75;4.50;;;;;;;23.94;47.43;101093.53;5035992;28;20787;-87
2023/05/22 08:20:04;;;;;;;13.38;4.00;;;;;;;24.11;47.03;101101.63;5041942;28;20895;-86
2023/05/22 08:22:30;;;;;;;9.70;3.85;;;;;;;24.31;44.98;101098.38;5048190;28;20482;-87
2023/05/22 08:24:56;;;;;;;12.80;4.25;;;;;;;24.15;45.34;101093.81;5042286;28;20454;-86
2023/05/22 08:27:21;;;;;;;11.43;3.95;;;;;;;24.26;46.21;101101.00;5042878;28;20413;-87
2023/05/22 08:29:47;;;;;;;6.53;3.70;;;;;;;24.38;44.53;101084.59;5047895;28;20370;-86
2023/05/22 08:32:12;;;;;;;13.18;4.03;;;;;;;24.53;44.92;101092.94;5042644;28;20452;-86
2023/05/22 08:34:39;;;;;;;11.57;3.70;;;;;;;24.60;44.07;101088.16;5039267;28;20375;-87
2023/05/22 08:37:05;;;;;;;8.85;3.70;;;;;;;24.69;44.14;101083.09;5038297;28;20815;-86
2023/05/22 08:39:31;;;;;;;10.63;3.72;;;;;;;24.65;43.99;101081.13;5038724;28;20474;-86
2023/05/22 08:41:57;;;;;;;11.15;3.80;;;;;;;24.75;43.41;101092.91;5036526;28;20446;-86
2023/05/22 08:44:23;;;;;;;7.72;3.40;;;;;;;24.93;43.28;101085.50;5022903;28;20425;-87
2023/05/22 08:46:51;;;;;;;12.20;4.20;;;;;;;25.09;42.93;101089.16;5044472;28;20378;-88
2023/05/22 08:49:17;;;;;;;8.35;3.38;;;;;;;24.96;40.65;101096.63;5053294;28;20359;-88
2023/05/22 08:51:47;;;;;;;9.52;3.35;;;;;;;24.88;40.42;101088.97;5058988;28;20417;-85
2023/05/22 08:54:15;;;;;;;9.63;3.40;;;;;;;24.92;38.72;101092.81;5038104;28;20378;-85
2023/05/22 08:56:41;;;;;;;13.10;4.13;;;;;;;24.91;39.93;101085.75;5045169;28;20865;-86
2023/05/22 08:59:07;;;;;;;9.90;3.30;;;;;;;24.93;39.58;101104.47;5042842;28;20416;-85
2023/05/22 09:01:32;;;;;;;14.40;3.95;;;;;;;24.97;39.71;101089.31;5057436;28;20797;-85
2023/05/22 09:04:02;;;;;;;10.73;3.17;;;;;;;25.06;38.89;101089.66;5043813;28;20484;-87
2023/05/22 09:06:28;;;;;;;10.77;3.70;;;;;;;25.19;39.15;101094.66;5039485;28;20386;-85
2023/05/22 09:09:00;;;;;;;7.40;2.95;;;;;;;25.29;38.88;101086.63;5020546;28;20395;-85
2023/05/22 09:11:26;;;;;;;9.80;3.08;;;;;;;25.30;38.77;101095.59;5036554;28;20387;-85
2023/05/22 09:13:51;;;;;;;7.28;3.10;;;;;;;25.41;38.52;101091.91;5043529;28;20519;-85
2023/05/22 09:16:18;;;;;;;12.77;3.23;;;;;;;25.42;37.62;101085.38;5050307;28;20869;-86
2023/05/22 09:18:44;;;;;;;12.63;3.40;;;;;;;25.37;37.24;101085.31;5025616;28;20409;-85
2023/05/22 09:21:12;;;;;;;10.90;3.20;;;;;;;25.55;37.73;101089.53;5028878;28;20378;-85
2023/05/22 09:23:40;;;;;;;8.55;3.35;;;;;;;25.65;38.01;101086.06;5045879;28;20388;-86
2023/05/22 09:26:06;;;;;;;10.32;3.67;;;;;;;24.96;38.18;101088.50;5041294;28;20416;-85
2023/05/22 09:28:35;;;;;;;10.77;3.30;;;;;;;24.73;39.12;101084.22;5026709;28;20392;-85
2023/05/22 09:31:02;;;;;;;12.52;3.45;;;;;;;25.09;39.12;101087.25;5027272;28;20810;-84
2023/05/22 09:33:28;;;;;;;11.83;3.57;;;;;;;25.43;38.91;101087.03;5028973;28;20923;-85
2023/05/22 09:35:54;;;;;;;9.57;3.15;;;;;;;25.44;38.79;101087.81;5029619;28;20398;-86
2023/05/22 09:38:28;;;;;;;8.83;3.07;;;;;;;25.40;39.02;101078.59;5032570;28;20855;-85
2023/05/22 09:40:55;;;;;;;6.88;3.08;;;;;;;25.55;39.22;101082.22;5032656;28;20474;-85
2023/05/22 09:43:25;;;;;;;8.77;3.40;;;;;;;25.73;38.92;101080.13;5028403;28;20901;-85
2023/05/22 09:46:00;;;;;;;10.13;3.40;;;;;;;25.81;39.18;101081.56;5030063;28;20453;-85
2023/05/22 09:48:26;;;;;;;11.25;3.67;;;;;;;25.79;38.87;101070.16;5050243;28;20378;-85
2023/05/22 09:50:58;;;;;;;10.55;3.40;;;;;;;25.57;39.30;101060.25;5032608;28;20396;-85
2023/05/22 09:53:30;;;;;;;11.48;3.60;;;;;;;25.78;39.32;101066.59;5056530;28;20738;-85
2023/05/22 09:55:58;;;;;;;13.23;3.90;;;;;;;25.68;38.90;101072.00;5055731;28;20381;-85
2023/05/22 09:58:26;;;;;;;11.68;3.88;;;;;;;25.59;39.61;101068.94;5037524;28;20375;-84
2023/05/22 10:00:55;;;;;;;11.40;4.50;;;;;;;25.71;39.34;101060.59;5037125;28;20855;-85
2023/05/22 10:03:23;;;;;;;12.60;3.85;;;;;;;25.74;39.65;101068.22;5037439;28;20802;-86
2023/05/22 10:05:54;;;;;;;12.60;3.92;;;;;;;25.69;39.88;101066.28;5040858;28;20899;-86
2023/05/22 10:08:25;;;;;;;10.00;3.40;;;;;;;25.73;39.03;101064.69;5039128;28;20382;-86
2023/05/22 10:10:54;;;;;;;10.23;3.40;;;;;;;25.60;39.19;101059.69;5019075;28;20434;-85
2023/05/22 10:13:20;;;;;;;10.52;3.33;;;;;;;25.69;39.41;101062.75;5015948;28;20431;-84
2023/05/22 10:15:47;;;;;;;7.35;3.00;;;;;;;25.59;38.66;101063.50;5017300;28;20502;-85
2023/05/22 10:18:16;;;;;;;11.50;3.42;;;;;;;25.62;39.01;101048.59;5017148;28;21225;-86
2023/05/22 10:20:43;;;;;;;10.68;3.63;;;;;;;25.64;38.91;101062.72;5016559;28;20386;-85
2023/05/22 10:23:09;;;;;;;13.60;3.60;;;;;;;25.83;39.07;101057.66;5016595;28;20396;-86
2023/05/22 10:25:37;;;;;;;7.73;3.33;;;;;;;26.00;39.04;101050.19;5034216;28;20915;-86
2023/05/22 10:28:03;;;;;;;10.82;3.28;;;;;;;25.96;37.90;101045.53;5021372;28;20399;-84
2023/05/22 10:30:50;;;;;;;11.98;3.40;;;;;;;25.94;38.17;101054.75;5026729;28;20479;-84
2023/05/22 10:33:24;;;;;;;8.48;3.50;;;;;;;26.01;37.98;101043.66;5024145;28;20387;-87
2023/05/22 10:36:23;;;;;;;9.35;3.10;;;;;;;26.11;37.75;101041.00;5016727;28;20383;-85
2023/05/22 10:38:54;;;;;;;9.03;3.07;;;;;;;26.02;37.83;101047.19;5016389;28;20384;-84
2023/05/22 10:41:23;;;;;;;9.77;3.47;;;;;;;25.85;38.00;101039.22;5018039;28;20419;-84
2023/05/22 10:43:50;;;;;;;10.27;3.40;;;;;;;25.99;37.70;101039.59;5001134;28;20458;-84
2023/05/22 10:46:16;;;;;;;11.13;3.20;;;;;;;26.05;37.35;101039.31;5016546;28;20392;-83
2023/05/22 10:48:50;;;;;;;6.93;2.85;;;;;;;25.97;37.16;101037.13;5022501;28;20388;-84
2023/05/22 10:51:21;;;;;;;6.73;2.83;;;;;;;26.00;37.14;101028.47;5021217;28;20420;-85
2023/05/22 10:53:54;;;;;;;9.35;3.22;;;;;;;26.01;37.01;101026.56;5030429;28;20405;-85
2023/05/22 10:56:21;;;;;;;12.32;4.13;;;;;;;26.06;37.16;101027.38;5040028;28;20390;-87
2023/05/22 10:59:01;;;;;;;11.45;3.78;;;;;;;26.06;37.41;101023.84;5042169;28;20444;-86
2023/05/22 11:01:27;;;;;;;11.38;3.17;;;;;;;25.89;37.20;101010.44;5049118;28;20824;-86
2023/05/22 11:04:01;;;;;;;10.68;3.20;;;;;;;25.95;37.36;101009.41;5047830;28;20928;-85
2023/05/22 11:06:45;;;;;;;13.13;3.63;;;;;;;26.01;37.22;101002.09;5042072;28;20386;-85
2023/05/22 11:09:31;;;;;;;8.93;3.20;;;;;;;26.13;37.55;100998.06;5038608;28;20390;-85
2023/05/22 11:12:15;;;;;;;7.80;2.88;;;;;;;26.17;37.13;101000.25;5041675;28;20374;-84
2023/05/22 11:14:49;;;;;;;6.63;2.80;;;;;;;26.09;36.72;100988.81;5041957;28;20410;-85
2023/05/22 11:17:27;;;;;;;5.63;2.70;;;;;;;26.06;36.31;100989.34;5040672;28;20402;-86
2023/05/22 11:20:17;;;;;;;9.07;3.10;;;;;;;26.18;36.45;100967.38;5040620;28;20379;-86